createdAt,value
2018-07-12T17:51:19.825Z,99077.61
2018-07-12T17:53:48.373Z,99051.73
2018-07-12T17:56:18.342Z,99072.45
2018-07-12T17:58:47.910Z,99076.70
2018-07-12T18:01:16.568Z,99076.95
2018-07-12T18:03:48.301Z,99074.86
2018-07-12T18:06:16.679Z,99087.63
2018-07-12T18:08:45.353Z,99085.54
2018-07-12T18:11:14.159Z,99089.29
2018-07-12T18:13:42.490Z,99088.36
2018-07-12T18:16:14.540Z,99089.61
2018-07-12T18:18:43.149Z,99073.78
2018-07-12T18:21:13.053Z,99093.54
2018-07-12T18:23:42.283Z,99094.16
2018-07-12T18:26:11.391Z,99099.49
2018-07-12T18:28:43.064Z,99094.55
2018-07-12T18:31:13.734Z,99096.67
2018-07-12T18:33:44.545Z,99102.47
2018-07-12T18:36:14.338Z,99108.37
2018-07-12T18:38:43.837Z,99092.55
2018-07-12T18:41:15.048Z,99112.36
2018-07-12T18:43:43.693Z,99121.41
2018-07-12T18:46:11.955Z,99108.58
2018-07-12T18:48:43.314Z,99091.63
2018-07-12T18:51:14.754Z,99119.48
2018-07-12T18:53:43.175Z,99120.22
2018-07-12T18:56:13.915Z,99131.33
2018-07-12T18:58:42.389Z,99125.27
2018-07-12T19:01:11.036Z,99122.26
2018-07-12T19:03:41.027Z,99131.44
2018-07-12T19:06:11.001Z,99127.57
2018-07-12T19:08:47.295Z,99140.83
2018-07-12T19:11:16.296Z,99144.77
2018-07-12T19:13:47.883Z,99153.31
2018-07-12T19:16:17.204Z,99145.64
2018-07-12T19:18:48.458Z,99156.58
2018-07-12T19:21:19.768Z,99163.47
2018-07-12T19:23:49.154Z,99155.48
2018-07-12T19:26:19.148Z,99122.52
2018-07-12T19:28:49.365Z,99141.98
2018-07-12T19:31:18.740Z,99152.68
2018-07-12T19:33:48.121Z,99151.95
2018-07-12T19:36:16.553Z,99175.48
2018-07-12T19:38:53.597Z,99171.69
2018-07-12T19:41:23.604Z,99176.36
2018-07-12T19:43:57.727Z,99188.55
2018-07-12T19:46:26.752Z,99185.18
2018-07-12T19:48:59.066Z,99192.38
2018-07-12T19:51:30.660Z,99177.87
2018-07-12T19:54:02.818Z,99184.18
2018-07-12T19:56:31.511Z,99203.33
2018-07-12T19:59:00.465Z,99195.42
2018-07-12T20:01:29.593Z,99197.93
2018-07-12T20:03:59.027Z,99210.33
2018-07-12T20:06:28.582Z,99203.96
2018-07-12T20:09:04.784Z,99184.82
2018-07-12T20:11:33.784Z,99212.06
2018-07-12T20:14:02.673Z,99215.37
2018-07-12T20:16:31.440Z,99208.20
2018-07-12T20:18:59.808Z,99204.38
2018-07-12T20:21:28.738Z,99216.52
2018-07-12T20:23:57.273Z,99208.94
2018-07-12T20:26:26.916Z,99197.79
2018-07-12T20:28:55.487Z,99221.56
2018-07-12T20:31:25.171Z,99213.81
2018-07-12T20:33:53.858Z,99225.58
2018-07-12T20:36:22.606Z,99211.06
2018-07-12T20:38:51.262Z,99226.58
2018-07-12T20:41:19.582Z,99226.57
2018-07-12T20:43:47.982Z,99233.64
2018-07-12T20:46:17.319Z,99237.59
2018-07-12T20:48:45.681Z,99252.40
2018-07-12T20:51:15.162Z,99237.75
2018-07-12T20:53:43.806Z,99243.62
2018-07-12T20:56:12.057Z,99232.57
2018-07-12T20:58:40.290Z,99244.27
2018-07-12T21:01:08.961Z,99226.98
2018-07-12T21:03:38.819Z,99240.89
2018-07-12T21:06:07.048Z,99236.41
2018-07-12T21:08:35.493Z,99242.20
2018-07-12T21:11:03.745Z,99254.28
2018-07-12T21:13:32.346Z,99252.09
2018-07-12T21:16:00.807Z,99245.02
2018-07-12T21:18:28.951Z,99257.74
2018-07-12T21:20:57.515Z,99247.46
2018-07-12T21:23:26.787Z,99262.37
2018-07-12T21:25:59.680Z,99262.75
2018-07-12T21:28:28.042Z,99264.42
2018-07-12T21:30:56.242Z,99262.75
2018-07-12T21:33:24.575Z,99248.78
2018-07-12T21:35:52.751Z,99276.59
2018-07-12T21:38:20.850Z,99263.14
2018-07-12T21:40:49.205Z,99268.95
2018-07-12T21:43:17.944Z,99268.87
2018-07-12T21:45:46.539Z,99270.29
2018-07-12T21:48:14.943Z,99275.81
2018-07-12T21:50:43.682Z,99264.41
2018-07-12T21:53:16.831Z,99262.63
2018-07-12T21:55:50.421Z,99261.86
2018-07-12T21:58:18.920Z,99272.20
2018-07-12T22:00:47.709Z,99273.16
2018-07-12T22:03:16.911Z,99271.57
2018-07-12T22:05:46.321Z,99264.28
2018-07-12T22:08:17.209Z,99271.94
2018-07-12T22:10:47.283Z,99275.23
2018-07-12T22:13:17.701Z,99279.88
2018-07-12T22:15:47.355Z,99285.86
2018-07-12T22:18:16.924Z,99281.55
2018-07-12T22:20:47.281Z,99284.39
2018-07-12T22:23:16.027Z,99272.77
2018-07-12T22:25:44.566Z,99279.64
2018-07-12T22:28:12.995Z,99251.08
2018-07-12T22:30:41.378Z,99271.06
2018-07-12T22:33:09.875Z,99274.09
2018-07-12T22:35:38.628Z,99269.39
2018-07-12T22:38:09.266Z,99265.49
2018-07-12T22:40:37.887Z,99244.03
2018-07-12T22:43:08.250Z,99267.20
2018-07-12T22:45:36.637Z,99273.02
2018-07-12T22:48:05.194Z,99264.61
2018-07-12T22:50:37.202Z,99263.78
2018-07-12T22:53:05.430Z,99269.44
2018-07-12T22:55:34.226Z,99268.92
2018-07-12T22:58:02.938Z,99266.10
2018-07-12T23:00:31.269Z,99257.75
2018-07-12T23:02:59.398Z,99271.13
2018-07-12T23:05:28.205Z,99279.00
2018-07-12T23:07:56.841Z,99275.06
2018-07-12T23:10:25.333Z,99270.85
2018-07-12T23:12:54.749Z,99278.33
2018-07-12T23:15:23.032Z,99271.72
2018-07-12T23:17:51.609Z,99278.01
2018-07-12T23:20:19.662Z,99274.75
2018-07-12T23:22:47.711Z,99260.41
2018-07-12T23:25:15.796Z,99270.34
2018-07-12T23:27:44.213Z,99268.73
2018-07-12T23:30:12.310Z,99263.39
2018-07-12T23:32:40.663Z,99264.35
2018-07-12T23:35:09.682Z,99266.20
2018-07-12T23:37:37.943Z,99261.24
2018-07-12T23:40:07.724Z,99242.00
2018-07-12T23:42:36.529Z,99256.83
2018-07-12T23:45:04.974Z,99262.89
2018-07-12T23:47:33.208Z,99259.06
2018-07-12T23:50:01.720Z,99264.64
2018-07-12T23:52:30.173Z,99256.19
2018-07-12T23:54:58.598Z,99260.84
2018-07-12T23:57:27.390Z,99255.50
2018-07-12T23:59:55.863Z,99253.61
